Time;durP1;ratioP1;P1;durP2;ratioP2;P2;SDS_P1;SDS_P2;PMS_P1;PMS_P2;Temp;Humidity;BMP_temperature;BMP_pressure;BME280_temperature;BME280_humidity;BME280_pressure;Samples;Min_cycle;Max_cycle;Signal;HPM_P1;HPM_P2
2023/03/30 00:01:56;;;;;;;5.30;1.92;;;17.30;99.90;;;;;;5047800;28;20666;-35
2023/03/30 00:04:26;;;;;;;3.55;1.90;;;17.30;99.90;;;;;;5047908;28;20581;-34
2023/03/30 00:06:55;;;;;;;5.97;2.13;;;17.30;99.90;;;;;;5046604;28;20196;-33
2023/03/30 00:09:23;;;;;;;5.45;2.28;;;17.30;99.90;;;;;;5046261;28;20610;-33
2023/03/30 00:11:55;;;;;;;4.75;1.80;;;17.40;99.90;;;;;;5047953;28;20196;-33
2023/03/30 00:14:30;;;;;;;4.70;1.70;;;17.40;99.90;;;;;;5030289;28;20205;-32
2023/03/30 00:17:02;;;;;;;5.43;1.88;;;17.40;99.90;;;;;;5045750;28;20200;-32
2023/03/30 00:19:29;;;;;;;5.05;2.10;;;17.50;99.90;;;;;;5047393;28;20211;-32
2023/03/30 00:21:59;;;;;;;6.03;1.90;;;17.50;99.90;;;;;;5047325;28;20316;-32
2023/03/30 00:24:26;;;;;;;3.47;1.67;;;17.50;99.90;;;;;;5047239;28;20724;-32
2023/03/30 00:26:53;;;;;;;7.50;2.10;;;17.50;99.90;;;;;;5029622;28;20686;-32
2023/03/30 00:29:22;;;;;;;5.72;1.90;;;17.50;99.90;;;;;;5029252;28;20642;-32
2023/03/30 00:31:50;;;;;;;4.35;1.70;;;17.50;99.90;;;;;;5046323;28;20207;-32
2023/03/30 00:34:20;;;;;;;5.72;1.63;;;17.50;99.90;;;;;;5047412;28;20200;-32
2023/03/30 00:36:48;;;;;;;3.15;1.88;;;17.50;99.90;;;;;;5045900;28;20220;-33
2023/03/30 00:39:17;;;;;;;3.53;1.85;;;17.50;99.90;;;;;;5047208;28;20204;-32
2023/03/30 00:41:47;;;;;;;5.15;1.58;;;17.50;99.90;;;;;;5046933;28;20204;-34
2023/03/30 00:44:52;;;;;;;3.90;1.95;;;17.50;99.90;;;;;;5046997;28;20223;-34
2023/03/30 00:47:24;;;;;;;4.43;1.75;;;17.50;99.90;;;;;;5045591;28;20224;-34
2023/03/30 00:49:54;;;;;;;2.88;1.40;;;17.50;99.90;;;;;;5046937;28;20224;-34
2023/03/30 00:52:26;;;;;;;3.72;1.73;;;17.50;99.90;;;;;;5045686;28;20223;-34
2023/03/30 00:54:56;;;;;;;4.65;1.80;;;17.40;99.90;;;;;;5046915;28;20620;-33
2023/03/30 00:57:25;;;;;;;3.28;1.30;;;17.40;99.90;;;;;;5045306;28;20690;-34
2023/03/30 00:59:59;;;;;;;2.20;1.35;;;17.40;99.90;;;;;;5041421;28;20742;-33
2023/03/30 01:02:32;;;;;;;3.85;1.60;;;17.40;99.90;;;;;;5040226;28;20219;-34
2023/03/30 01:05:03;;;;;;;2.72;1.67;;;17.40;99.90;;;;;;5037960;28;20224;-33
2023/03/30 01:07:33;;;;;;;3.17;1.30;;;17.40;99.90;;;;;;5033887;28;20767;-34
2023/03/30 01:10:03;;;;;;;5.18;1.40;;;17.30;99.90;;;;;;5046037;28;20199;-34
2023/03/30 01:12:33;;;;;;;3.95;1.40;;;17.30;99.90;;;;;;5046533;28;20666;-34
2023/03/30 01:15:02;;;;;;;3.88;1.63;;;17.30;99.90;;;;;;5025181;28;20680;-34
2023/03/30 01:17:51;;;;;;;2.40;1.10;;;17.30;99.90;;;;;;5036273;28;20653;-34
2023/03/30 01:20:37;;;;;;;4.50;1.30;;;17.30;99.90;;;;;;5046203;28;20667;-33
2023/03/30 01:23:07;;;;;;;3.42;1.23;;;17.30;99.90;;;;;;5046160;28;20212;-33
2023/03/30 01:25:50;;;;;;;3.75;1.45;;;17.30;99.90;;;;;;5046045;28;20689;-33
2023/03/30 01:28:39;;;;;;;3.60;1.30;;;17.30;99.90;;;;;;5046160;28;20207;-33
2023/03/30 01:31:26;;;;;;;5.03;1.30;;;17.20;99.90;;;;;;5044311;28;20215;-32
2023/03/30 01:34:09;;;;;;;3.25;1.30;;;17.20;99.90;;;;;;5045220;28;20300;-32
2023/03/30 01:36:41;;;;;;;2.65;1.00;;;17.20;99.90;;;;;;5045974;28;20204;-33
2023/03/30 01:39:21;;;;;;;3.35;1.35;;;17.20;99.90;;;;;;5046237;28;20739;-32
2023/03/30 01:42:08;;;;;;;5.80;1.27;;;17.20;99.90;;;;;;5044926;28;20291;-32
2023/03/30 01:44:47;;;;;;;3.28;1.50;;;17.20;99.90;;;;;;5046325;28;20301;-32
2023/03/30 01:47:35;;;;;;;4.13;1.27;;;17.10;99.90;;;;;;5044607;28;20273;-32
2023/03/30 01:50:10;;;;;;;3.45;1.20;;;17.10;99.90;;;;;;5046156;28;20671;-32
2023/03/30 01:52:58;;;;;;;3.28;1.30;;;17.10;99.90;;;;;;5046145;28;20219;-32
2023/03/30 01:55:32;;;;;;;2.50;1.33;;;17.10;99.90;;;;;;5044711;28;20239;-32
2023/03/30 01:58:23;;;;;;;4.93;1.40;;;17.10;99.90;;;;;;5045998;28;20220;-32
2023/03/30 02:00:54;;;;;;;2.70;1.20;;;17.10;99.90;;;;;;5045819;28;20208;-32
2023/03/30 02:03:27;;;;;;;3.70;1.60;;;17.10;99.90;;;;;;5044593;28;20679;-34
2023/03/30 02:06:02;;;;;;;4.25;1.50;;;17.10;99.90;;;;;;5044572;28;20561;-34
2023/03/30 02:08:37;;;;;;;4.72;1.40;;;17.10;99.90;;;;;;5046080;28;20200;-32
2023/03/30 02:11:06;;;;;;;2.28;1.15;;;17.10;99.90;;;;;;5044910;28;20199;-33
2023/03/30 02:13:36;;;;;;;3.13;1.13;;;17.10;99.90;;;;;;5045505;28;20251;-32
2023/03/30 02:16:17;;;;;;;2.08;1.40;;;17.20;99.90;;;;;;5047301;28;20315;-32
2023/03/30 02:18:45;;;;;;;2.58;1.40;;;17.20;99.90;;;;;;5050136;28;20200;-32
2023/03/30 02:21:15;;;;;;;2.15;1.23;;;17.20;99.90;;;;;;5049972;28;20204;-32
2023/03/30 02:23:45;;;;;;;2.78;1.15;;;17.20;99.90;;;;;;5048524;28;20208;-31
2023/03/30 02:26:14;;;;;;;3.80;1.38;;;17.10;99.90;;;;;;5049854;28;20204;-32
2023/03/30 02:28:47;;;;;;;2.50;1.23;;;17.20;99.90;;;;;;5049768;28;20197;-31
2023/03/30 02:31:17;;;;;;;2.22;1.08;;;17.20;99.90;;;;;;5048142;28;20212;-31
2023/03/30 02:34:09;;;;;;;4.55;1.60;;;17.20;99.90;;;;;;5049438;28;20208;-31
2023/03/30 02:37:03;;;;;;;2.80;1.23;;;17.20;99.90;;;;;;5049744;28;20203;-34
2023/03/30 02:40:11;;;;;;;4.65;1.83;;;17.20;99.90;;;;;;5047942;28;20294;-34
2023/03/30 02:42:49;;;;;;;3.50;1.38;;;17.10;99.90;;;;;;5047834;28;20274;-34
2023/03/30 02:45:23;;;;;;;4.38;1.48;;;17.20;99.90;;;;;;5049571;28;20991;-34
2023/03/30 02:47:56;;;;;;;6.05;1.70;;;17.20;99.90;;;;;;5049435;28;20196;-34
2023/03/30 02:50:37;;;;;;;5.57;1.58;;;17.20;99.90;;;;;;5049720;28;20216;-34
2023/03/30 02:53:15;;;;;;;3.25;1.50;;;17.20;99.90;;;;;;5049650;28;20188;-34
2023/03/30 02:55:55;;;;;;;3.47;1.40;;;17.20;99.90;;;;;;5047446;28;20716;-34
2023/03/30 02:58:55;;;;;;;2.67;1.50;;;17.20;99.90;;;;;;5049075;28;20211;-33
2023/03/30 03:01:51;;;;;;;5.65;1.40;;;17.10;99.90;;;;;;5039683;28;20784;-34
2023/03/30 03:04:27;;;;;;;4.38;1.40;;;17.20;99.90;;;;;;5048842;28;20769;-34
2023/03/30 03:06:57;;;;;;;4.60;1.30;;;17.20;99.90;;;;;;5049095;28;20234;-34
2023/03/30 03:09:28;;;;;;;2.55;1.45;;;17.20;99.90;;;;;;5049193;28;20212;-34
2023/03/30 03:11:57;;;;;;;4.82;1.30;;;17.20;99.90;;;;;;5048576;28;20727;-34
2023/03/30 03:14:25;;;;;;;4.07;1.60;;;17.20;99.90;;;;;;5047717;28;20698;-34
2023/03/30 03:16:55;;;;;;;6.10;1.65;;;17.20;99.90;;;;;;5048954;28;20224;-34
2023/03/30 03:19:27;;;;;;;2.47;1.50;;;17.20;99.90;;;;;;5047812;28;20710;-34
2023/03/30 03:21:54;;;;;;;4.40;1.60;;;17.20;99.90;;;;;;5047413;28;20196;-34
2023/03/30 03:24:24;;;;;;;3.75;1.27;;;17.20;99.90;;;;;;5046945;28;20566;-34
2023/03/30 03:26:51;;;;;;;4.47;1.45;;;17.20;99.90;;;;;;5047361;28;20309;-34
2023/03/30 03:29:23;;;;;;;2.03;1.17;;;17.20;99.90;;;;;;5048707;28;20200;-34
2023/03/30 03:31:50;;;;;;;5.15;1.35;;;17.20;99.90;;;;;;5047330;28;20196;-34
2023/03/30 03:34:24;;;;;;;2.10;1.20;;;17.20;99.90;;;;;;5047067;28;20299;-32
2023/03/30 03:36:53;;;;;;;6.53;1.45;;;17.20;99.90;;;;;;5046834;28;20856;-32
2023/03/30 03:39:21;;;;;;;5.65;1.60;;;17.20;99.90;;;;;;5048043;28;20505;-32
2023/03/30 03:41:50;;;;;;;5.50;1.63;;;17.20;99.90;;;;;;5048096;28;20208;-32
2023/03/30 03:44:17;;;;;;;3.00;1.10;;;17.20;99.90;;;;;;5048261;28;20216;-32
2023/03/30 03:46:47;;;;;;;3.13;1.00;;;17.10;99.90;;;;;;5048098;28;20224;-32
2023/03/30 03:49:19;;;;;;;2.75;1.15;;;17.10;99.90;;;;;;5046893;28;20206;-32
2023/03/30 03:51:48;;;;;;;3.22;1.10;;;17.10;99.90;;;;;;5048071;28;20404;-32
2023/03/30 03:54:16;;;;;;;1.88;1.00;;;17.10;99.90;;;;;;5047833;28;20577;-32
2023/03/30 03:56:43;;;;;;;4.75;1.30;;;17.00;99.90;;;;;;5029208;28;20254;-32
2023/03/30 03:59:12;;;;;;;5.40;1.30;;;17.00;99.90;;;;;;5047737;28;20208;-32
2023/03/30 04:01:41;;;;;;;3.13;1.20;;;17.00;99.90;;;;;;5047242;28;20258;-32
2023/03/30 04:04:11;;;;;;;1.02;0.77;;;17.00;99.90;;;;;;5045614;28;20203;-32
2023/03/30 04:06:46;;;;;;;2.72;0.90;;;17.00;99.90;;;;;;5047617;28;20617;-32
2023/03/30 04:09:16;;;;;;;5.30;1.35;;;16.90;99.90;;;;;;5047240;28;20204;-32
2023/03/30 04:11:48;;;;;;;4.25;1.13;;;16.90;99.90;;;;;;5047648;28;20209;-32
2023/03/30 04:14:15;;;;;;;5.57;1.33;;;16.90;99.90;;;;;;5047460;28;20636;-32
2023/03/30 04:16:44;;;;;;;2.90;1.10;;;16.90;99.90;;;;;;5045980;28;20669;-32
2023/03/30 04:19:15;;;;;;;2.60;1.15;;;16.90;99.90;;;;;;5047168;28;20211;-32
2023/03/30 04:21:48;;;;;;;4.13;1.23;;;16.90;99.90;;;;;;5047230;28;20200;-32
2023/03/30 04:24:18;;;;;;;3.28;1.25;;;16.90;99.90;;;;;;5047035;28;20289;-32
2023/03/30 04:26:47;;;;;;;3.70;1.10;;;17.00;99.90;;;;;;5046851;28;20201;-32
2023/03/30 04:29:19;;;;;;;5.03;1.30;;;16.90;99.90;;;;;;5047183;28;20209;-32
2023/03/30 04:31:46;;;;;;;2.70;1.33;;;16.90;99.90;;;;;;5047001;28;20519;-32
2023/03/30 04:34:20;;;;;;;3.60;1.15;;;16.90;99.90;;;;;;5045558;28;20199;-32
2023/03/30 04:36:50;;;;;;;4.38;1.20;;;16.90;99.90;;;;;;5047422;28;20265;-32
2023/03/30 04:39:20;;;;;;;3.78;1.30;;;16.90;99.90;;;;;;5046807;28;20305;-32
2023/03/30 04:41:51;;;;;;;3.85;1.30;;;16.90;99.90;;;;;;5047272;28;20532;-32
2023/03/30 04:44:19;;;;;;;2.38;1.20;;;16.90;99.90;;;;;;5047796;28;20200;-32
2023/03/30 04:46:46;;;;;;;4.25;1.20;;;16.90;99.90;;;;;;5047126;28;20207;-32
2023/03/30 04:49:18;;;;;;;2.85;1.23;;;16.90;99.90;;;;;;5045613;28;20215;-32
2023/03/30 04:51:46;;;;;;;2.47;1.00;;;16.90;99.90;;;;;;5045509;28;20188;-32
2023/03/30 04:54:13;;;;;;;3.20;1.10;;;17.00;99.90;;;;;;5045303;28;20192;-32
2023/03/30 04:56:40;;;;;;;4.00;1.38;;;17.00;99.90;;;;;;5047225;28;20235;-32
2023/03/30 04:59:13;;;;;;;3.50;1.30;;;17.00;99.90;;;;;;5045111;28;20196;-32
2023/03/30 05:01:40;;;;;;;2.92;1.45;;;17.00;99.90;;;;;;5047525;28;20745;-32
2023/03/30 05:04:10;;;;;;;5.20;1.60;;;17.00;99.90;;;;;;5045082;28;20640;-32
2023/03/30 05:06:40;;;;;;;3.53;1.45;;;17.00;99.90;;;;;;5028856;28;20196;-32
2023/03/30 05:09:10;;;;;;;9.20;2.15;;;17.00;99.90;;;;;;5046940;28;20694;-32
2023/03/30 05:11:41;;;;;;;2.97;1.35;;;17.00;99.90;;;;;;5029290;28;20208;-32
2023/03/30 05:14:13;;;;;;;6.45;1.80;;;16.90;99.90;;;;;;5045296;28;20212;-32
2023/03/30 05:16:40;;;;;;;5.00;1.70;;;16.90;99.90;;;;;;5046298;28;20679;-33
2023/03/30 05:19:10;;;;;;;2.42;1.23;;;16.80;99.90;;;;;;5046814;28;20573;-32
2023/03/30 05:21:48;;;;;;;5.77;1.60;;;16.80;99.90;;;;;;5045910;28;20711;-32
2023/03/30 05:24:15;;;;;;;3.88;1.20;;;16.80;99.90;;;;;;5044664;28;20580;-32
2023/03/30 05:26:47;;;;;;;2.80;1.10;;;16.70;99.90;;;;;;5046783;28;20611;-32
2023/03/30 05:29:17;;;;;;;5.30;1.42;;;16.70;99.90;;;;;;5046557;28;20220;-33
2023/03/30 05:31:44;;;;;;;7.53;1.70;;;16.70;99.90;;;;;;5046244;28;20566;-32
2023/03/30 05:34:11;;;;;;;4.70;1.15;;;16.70;99.90;;;;;;5046197;28;20204;-33
2023/03/30 05:36:40;;;;;;;5.68;1.42;;;16.70;99.90;;;;;;5046183;28;20203;-32
2023/03/30 05:39:11;;;;;;;4.95;1.50;;;16.70;99.90;;;;;;5046526;28;20208;-32
2023/03/30 05:41:40;;;;;;;6.35;1.65;;;16.70;99.90;;;;;;5044757;28;20227;-32
2023/03/30 05:44:10;;;;;;;13.93;2.60;;;16.60;99.90;;;;;;5044797;28;20228;-32
2023/03/30 05:46:39;;;;;;;8.93;1.48;;;16.50;99.90;;;;;;5045913;28;20228;-32
2023/03/30 05:49:06;;;;;;;5.40;1.77;;;16.50;99.90;;;;;;5028250;28;20200;-32
2023/03/30 05:51:34;;;;;;;6.13;1.60;;;16.50;99.90;;;;;;5047272;28;20311;-32
2023/03/30 05:54:02;;;;;;;6.00;1.73;;;16.40;99.90;;;;;;5050148;28;20372;-33
2023/03/30 05:56:31;;;;;;;6.63;2.25;;;16.40;99.90;;;;;;5048308;28;20243;-33
2023/03/30 05:59:03;;;;;;;11.85;1.67;;;16.40;99.90;;;;;;5050557;28;20611;-33
2023/03/30 06:01:31;;;;;;;6.77;1.77;;;16.30;99.90;;;;;;5050338;28;20634;-32
2023/03/30 06:03:58;;;;;;;8.60;1.98;;;16.20;99.90;;;;;;5048594;28;20218;-33
2023/03/30 06:06:28;;;;;;;6.20;1.67;;;16.20;99.90;;;;;;5048584;28;20231;-32
2023/03/30 06:08:55;;;;;;;8.95;2.50;;;16.20;99.90;;;;;;5050236;28;20195;-32
2023/03/30 06:11:24;;;;;;;9.40;2.87;;;16.10;99.90;;;;;;5047917;28;20311;-32
2023/03/30 06:13:56;;;;;;;9.27;2.27;;;16.10;99.90;;;;;;5048240;28;20275;-35
2023/03/30 06:16:27;;;;;;;8.03;2.20;;;16.10;99.90;;;;;;5049409;28;20211;-32
2023/03/30 06:18:55;;;;;;;9.93;2.50;;;16.10;99.90;;;;;;5049586;28;20636;-32
2023/03/30 06:21:22;;;;;;;5.80;1.63;;;16.10;99.90;;;;;;5047882;28;20223;-33
2023/03/30 06:23:49;;;;;;;8.35;1.88;;;16.10;99.90;;;;;;5047892;28;20258;-33
2023/03/30 06:26:19;;;;;;;5.97;1.83;;;16.10;99.90;;;;;;5049058;28;20466;-32
2023/03/30 06:28:49;;;;;;;7.20;1.50;;;16.10;99.90;;;;;;5048083;28;20699;-32
2023/03/30 06:31:19;;;;;;;8.53;2.00;;;16.10;99.90;;;;;;5047943;28;20201;-33
2023/03/30 06:33:46;;;;;;;5.40;2.00;;;16.10;99.90;;;;;;5049044;28;20192;-33
2023/03/30 06:36:15;;;;;;;5.53;1.80;;;16.00;99.90;;;;;;5049034;28;20257;-33
2023/03/30 06:38:43;;;;;;;7.47;1.87;;;16.00;99.90;;;;;;5047851;28;20204;-32
2023/03/30 06:41:14;;;;;;;7.50;2.00;;;16.10;99.90;;;;;;5048299;28;20192;-32
2023/03/30 06:43:43;;;;;;;10.37;2.37;;;16.10;99.90;;;;;;5049194;28;20257;-32
2023/03/30 06:46:13;;;;;;;9.47;1.97;;;16.00;99.90;;;;;;5048909;28;20219;-32
2023/03/30 06:48:43;;;;;;;6.27;1.60;;;16.10;99.90;;;;;;5049180;28;20302;-32
2023/03/30 06:51:13;;;;;;;6.38;1.85;;;16.10;99.90;;;;;;5049225;28;20196;-32
2023/03/30 06:53:40;;;;;;;5.90;1.67;;;16.10;99.90;;;;;;5047959;28;20287;-33
2023/03/30 06:56:08;;;;;;;3.73;1.67;;;16.10;99.90;;;;;;5049035;28;20263;-32
2023/03/30 06:58:37;;;;;;;7.22;1.90;;;16.10;99.90;;;;;;5048427;28;20315;-32
2023/03/30 07:01:09;;;;;;;6.40;2.10;;;16.10;99.90;;;;;;5049072;28;20207;-33
2023/03/30 07:03:42;;;;;;;9.60;2.40;;;16.10;99.90;;;;;;5049320;28;20294;-32
2023/03/30 07:06:12;;;;;;;8.57;2.50;;;16.10;99.90;;;;;;5048921;28;20897;-33
2023/03/30 07:08:39;;;;;;;6.35;1.80;;;16.10;99.90;;;;;;5047588;28;20330;-33
2023/03/30 07:11:06;;;;;;;9.33;2.40;;;16.10;99.90;;;;;;5047081;28;20224;-32
2023/03/30 07:13:36;;;;;;;13.65;2.70;;;16.00;99.90;;;;;;5047191;28;20299;-33
2023/03/30 07:16:07;;;;;;;7.33;1.90;;;16.00;99.90;;;;;;5048332;28;20774;-33
2023/03/30 07:18:35;;;;;;;9.10;2.20;;;16.00;99.90;;;;;;5047171;28;20200;-33
2023/03/30 07:21:03;;;;;;;7.88;1.75;;;16.00;99.90;;;;;;5048910;28;20208;-32
2023/03/30 07:23:31;;;;;;;6.93;1.90;;;16.00;99.90;;;;;;5047403;28;20273;-33
2023/03/30 07:26:00;;;;;;;11.93;2.63;;;16.00;99.90;;;;;;5047103;28;20212;-32
2023/03/30 07:28:30;;;;;;;11.38;3.38;;;16.00;99.90;;;;;;5048406;28;20200;-32
2023/03/30 07:31:06;;;;;;;20.33;3.58;;;16.00;99.90;;;;;;5048417;28;20282;-33
2023/03/30 07:33:35;;;;;;;17.33;3.53;;;16.00;99.90;;;;;;5048401;28;20211;-33
2023/03/30 07:36:03;;;;;;;8.10;2.10;;;16.00;99.90;;;;;;5046595;28;20200;-32
2023/03/30 07:38:31;;;;;;;11.87;2.73;;;16.00;99.90;;;;;;5046719;28;20225;-32
2023/03/30 07:40:59;;;;;;;6.97;1.90;;;16.10;99.90;;;;;;5030261;28;20254;-32
2023/03/30 07:43:27;;;;;;;5.97;1.75;;;16.10;99.90;;;;;;5030262;28;20640;-32
2023/03/30 07:45:56;;;;;;;7.05;2.22;;;16.10;99.90;;;;;;5030064;28;20251;-32
2023/03/30 07:48:27;;;;;;;5.65;1.73;;;16.10;99.90;;;;;;5048159;28;20205;-32
2023/03/30 07:51:09;;;;;;;8.73;1.90;;;16.10;99.90;;;;;;5029925;28;20283;-32
2023/03/30 07:53:37;;;;;;;5.88;2.00;;;16.10;99.90;;;;;;5048497;28;20192;-32
2023/03/30 07:56:07;;;;;;;7.50;1.87;;;16.20;99.90;;;;;;5048043;28;20331;-34
2023/03/30 07:58:34;;;;;;;6.47;1.85;;;16.20;99.90;;;;;;5046681;28;20223;-32
2023/03/30 08:01:06;;;;;;;7.50;2.07;;;16.20;99.90;;;;;;5030289;28;20200;-33
2023/03/30 08:03:36;;;;;;;8.75;1.85;;;16.20;99.90;;;;;;5048153;28;20266;-32
2023/03/30 08:06:07;;;;;;;9.02;2.13;;;16.20;99.90;;;;;;5046040;28;20326;-32
2023/03/30 08:08:39;;;;;;;12.07;2.73;;;16.20;99.90;;;;;;5047555;28;20204;-32
2023/03/30 08:11:11;;;;;;;7.77;2.17;;;16.20;99.90;;;;;;5029522;28;20203;-32
2023/03/30 08:13:38;;;;;;;6.43;2.30;;;16.20;99.90;;;;;;5045323;28;20193;-32
2023/03/30 08:16:10;;;;;;;13.43;3.10;;;16.20;99.90;;;;;;5047517;28;20295;-32
2023/03/30 08:18:40;;;;;;;13.02;2.38;;;16.20;99.90;;;;;;5030073;28;20201;-33
2023/03/30 08:21:10;;;;;;;7.53;2.00;;;16.20;99.90;;;;;;5047237;28;20291;-33
2023/03/30 08:23:39;;;;;;;8.02;2.42;;;16.20;99.90;;;;;;5047334;28;20691;-33
2023/03/30 08:26:09;;;;;;;6.72;1.98;;;16.20;99.90;;;;;;5045853;28;20228;-32
2023/03/30 08:28:36;;;;;;;9.47;2.53;;;16.20;99.90;;;;;;5047438;28;20324;-32
2023/03/30 08:31:09;;;;;;;7.83;2.03;;;16.30;99.90;;;;;;5047566;28;20804;-33
2023/03/30 08:33:38;;;;;;;12.63;2.60;;;16.30;99.90;;;;;;5047271;28;20585;-32
2023/03/30 08:36:11;;;;;;;8.70;2.53;;;16.30;99.90;;;;;;5045451;28;20208;-33
2023/03/30 08:38:45;;;;;;;6.88;2.28;;;16.30;99.90;;;;;;5045931;28;20505;-33
2023/03/30 08:41:27;;;;;;;13.37;2.53;;;16.30;99.90;;;;;;5046930;28;20231;-32
2023/03/30 08:44:06;;;;;;;6.38;2.13;;;16.30;99.90;;;;;;5045930;28;20231;-32
2023/03/30 08:46:33;;;;;;;9.63;2.63;;;16.20;99.90;;;;;;5046159;28;20227;-35
2023/03/30 08:49:13;;;;;;;15.05;2.55;;;16.20;99.90;;;;;;5046794;28;20724;-33
2023/03/30 08:51:45;;;;;;;8.77;2.10;;;16.20;99.90;;;;;;5045290;28;20631;-33
2023/03/30 08:54:17;;;;;;;15.02;3.08;;;16.00;99.90;;;;;;5045746;28;20226;-33
2023/03/30 08:57:29;;;;;;;8.73;2.40;;;16.00;99.90;;;;;;5045221;28;20232;-33
2023/03/30 09:00:18;;;;;;;15.43;2.58;;;16.00;99.90;;;;;;5045252;28;20333;-32
2023/03/30 09:02:54;;;;;;;9.85;2.08;;;16.00;99.90;;;;;;5045466;28;20220;-31
2023/03/30 09:05:36;;;;;;;7.70;1.70;;;16.00;99.90;;;;;;5046617;28;20577;-33
2023/03/30 09:08:22;;;;;;;5.55;1.80;;;16.00;99.90;;;;;;5046472;28;20246;-33
2023/03/30 09:10:59;;;;;;;12.27;3.33;;;16.00;99.90;;;;;;5044943;28;20578;-33
2023/03/30 09:13:33;;;;;;;13.15;2.92;;;16.00;99.90;;;;;;5046415;28;20227;-34
2023/03/30 09:16:31;;;;;;;6.97;1.70;;;16.00;99.90;;;;;;5046620;28;20249;-33
2023/03/30 09:19:02;;;;;;;14.97;3.20;;;16.10;99.90;;;;;;5044630;28;20636;-33
2023/03/30 09:21:30;;;;;;;15.17;2.80;;;16.10;99.90;;;;;;5044233;28;20208;-33
2023/03/30 09:24:09;;;;;;;9.27;2.70;;;16.10;99.90;;;;;;5046115;28;20568;-33
2023/03/30 09:27:08;;;;;;;10.93;2.30;;;16.20;99.90;;;;;;5045594;28;20648;-33
2023/03/30 09:29:53;;;;;;;10.80;2.67;;;16.20;99.90;;;;;;5045589;28;20273;-33
2023/03/30 09:32:39;;;;;;;13.27;2.70;;;16.30;99.90;;;;;;5044088;28;20192;-33
2023/03/30 09:35:23;;;;;;;14.63;2.92;;;16.40;99.90;;;;;;5045642;28;20216;-33
2023/03/30 09:37:53;;;;;;;10.68;2.78;;;16.40;99.90;;;;;;5046018;28;20203;-33
2023/03/30 09:40:39;;;;;;;10.02;2.33;;;16.40;99.90;;;;;;5044283;28;20667;-33
2023/03/30 09:43:51;;;;;;;12.77;2.55;;;16.50;99.90;;;;;;5044572;28;20282;-33
2023/03/30 09:46:19;;;;;;;11.57;2.45;;;16.60;99.90;;;;;;5043304;28;20313;-33
2023/03/30 09:48:52;;;;;;;10.65;2.80;;;16.60;99.90;;;;;;5040933;28;20208;-33
2023/03/30 09:51:24;;;;;;;8.27;2.10;;;16.60;99.90;;;;;;5045653;28;20250;-33
2023/03/30 09:54:02;;;;;;;6.80;2.13;;;16.70;99.90;;;;;;5046408;28;20223;-32
2023/03/30 09:56:46;;;;;;;9.88;2.67;;;16.70;99.90;;;;;;5046150;28;20235;-33
2023/03/30 09:59:40;;;;;;;8.98;2.22;;;16.70;99.90;;;;;;5045851;28;20251;-33
2023/03/30 10:02:15;;;;;;;7.57;2.17;;;16.70;99.90;;;;;;5044454;28;20215;-33
2023/03/30 10:04:52;;;;;;;9.07;2.30;;;16.70;99.90;;;;;;5045744;28;20215;-33
2023/03/30 10:07:23;;;;;;;11.98;2.30;;;16.70;99.90;;;;;;5045494;28;20231;-33
2023/03/30 10:09:53;;;;;;;5.93;2.05;;;16.70;99.90;;;;;;5045991;28;20258;-33
2023/03/30 10:12:24;;;;;;;6.40;1.85;;;16.70;99.90;;;;;;5027730;28;20204;-33
2023/03/30 10:15:03;;;;;;;6.77;2.00;;;16.70;99.90;;;;;;5045756;28;20284;-34
2023/03/30 10:17:30;;;;;;;6.18;1.55;;;16.80;99.90;;;;;;5045454;28;20306;-33
2023/03/30 10:20:13;;;;;;;7.60;2.20;;;16.80;99.90;;;;;;5044398;28;20512;-33
2023/03/30 10:22:59;;;;;;;10.90;2.10;;;16.80;99.90;;;;;;5044228;28;20250;-33
2023/03/30 10:25:28;;;;;;;8.45;2.15;;;16.80;99.90;;;;;;5045134;28;20505;-33
2023/03/30 10:28:01;;;;;;;5.78;1.83;;;16.80;99.90;;;;;;5043859;28;20235;-33
2023/03/30 10:30:32;;;;;;;4.30;1.45;;;16.70;99.90;;;;;;5045251;28;20197;-33
2023/03/30 10:33:04;;;;;;;7.00;2.10;;;16.70;99.90;;;;;;5045347;28;20269;-33
2023/03/30 10:35:35;;;;;;;9.77;1.63;;;16.60;99.90;;;;;;5045408;28;20204;-33
2023/03/30 10:38:05;;;;;;;5.30;1.52;;;16.60;99.90;;;;;;5047028;28;20206;-33
2023/03/30 10:40:43;;;;;;;4.82;1.30;;;16.50;99.90;;;;;;5049805;28;20685;-33
2023/03/30 10:43:22;;;;;;;4.85;1.55;;;16.40;99.90;;;;;;5049445;28;20230;-33
2023/03/30 10:45:55;;;;;;;5.13;1.05;;;16.30;99.90;;;;;;5049498;28;20603;-33
2023/03/30 10:48:42;;;;;;;3.63;1.13;;;16.30;99.90;;;;;;5047872;28;20219;-33
2023/03/30 10:51:43;;;;;;;5.03;1.40;;;16.20;99.90;;;;;;5049145;28;20258;-33
2023/03/30 10:54:39;;;;;;;6.13;1.43;;;16.20;99.90;;;;;;5048879;28;20234;-33
2023/03/30 10:57:09;;;;;;;5.43;1.57;;;16.20;99.90;;;;;;5031585;28;20679;-33
2023/03/30 10:59:54;;;;;;;6.75;2.00;;;16.20;99.90;;;;;;5049113;28;20212;-34
2023/03/30 11:02:37;;;;;;;5.67;2.00;;;16.10;99.90;;;;;;5048744;28;20219;-33
2023/03/30 11:05:21;;;;;;;5.47;2.00;;;16.10;99.90;;;;;;5049022;28;20576;-33
2023/03/30 11:08:01;;;;;;;7.13;2.33;;;16.10;99.90;;;;;;5049130;28;20588;-33
2023/03/30 11:10:32;;;;;;;8.13;2.30;;;16.10;99.90;;;;;;5047387;28;20701;-33
2023/03/30 11:13:21;;;;;;;10.93;2.65;;;16.10;99.90;;;;;;5047034;28;20224;-34
2023/03/30 11:15:55;;;;;;;9.97;2.83;;;16.10;99.90;;;;;;5048742;28;20236;-33
2023/03/30 11:18:34;;;;;;;8.70;2.73;;;16.10;99.90;;;;;;5049278;28;20207;-33
2023/03/30 11:21:09;;;;;;;10.88;2.85;;;16.20;99.90;;;;;;5047023;28;20319;-33
2023/03/30 11:23:54;;;;;;;12.40;2.50;;;16.20;99.90;;;;;;5047180;28;20274;-33
2023/03/30 11:26:34;;;;;;;12.47;2.67;;;16.20;99.90;;;;;;5048231;28;20289;-33
2023/03/30 11:29:26;;;;;;;8.90;2.43;;;16.20;99.90;;;;;;5047149;28;20674;-33
2023/03/30 11:32:01;;;;;;;10.35;2.53;;;16.20;99.90;;;;;;5048132;28;20200;-33
2023/03/30 11:34:46;;;;;;;20.00;4.17;;;16.20;99.90;;;;;;5048320;28;20714;-33
2023/03/30 11:37:37;;;;;;;18.43;3.43;;;16.10;99.90;;;;;;5048443;28;20200;-33
2023/03/30 11:40:22;;;;;;;15.70;2.97;;;16.20;99.90;;;;;;5048149;28;20246;-33
2023/03/30 11:42:55;;;;;;;22.45;3.28;;;16.10;99.90;;;;;;5047846;28;20228;-33
2023/03/30 11:45:28;;;;;;;20.15;3.47;;;16.10;99.90;;;;;;5047704;28;20196;-33
2023/03/30 11:48:05;;;;;;;29.47;4.80;;;16.10;99.90;;;;;;5047101;28;20292;-33
2023/03/30 11:50:39;;;;;;;18.80;3.80;;;16.10;99.90;;;;;;5047184;28;20569;-33
2023/03/30 11:53:27;;;;;;;22.77;4.80;;;16.10;99.90;;;;;;5046896;28;20627;-33
2023/03/30 11:56:06;;;;;;;12.05;3.10;;;16.20;99.90;;;;;;5046413;28;20307;-33
2023/03/30 11:58:40;;;;;;;13.07;3.00;;;16.20;99.90;;;;;;5047782;28;20207;-33
2023/03/30 12:01:25;;;;;;;13.80;3.13;;;16.20;99.90;;;;;;5045748;28;20204;-33
2023/03/30 12:04:15;;;;;;;14.32;3.40;;;16.20;99.90;;;;;;5047990;28;20227;-34
2023/03/30 12:06:51;;;;;;;15.30;3.30;;;16.20;99.90;;;;;;5047471;28;20346;-33
2023/03/30 12:09:33;;;;;;;11.87;3.20;;;16.30;99.90;;;;;;5046074;28;20262;-33
2023/03/30 12:12:14;;;;;;;15.52;2.40;;;16.30;99.90;;;;;;5047756;28;20200;-32
2023/03/30 12:14:55;;;;;;;14.57;3.07;;;16.40;99.90;;;;;;5047642;28;20295;-33
2023/03/30 12:17:53;;;;;;;16.57;2.80;;;16.50;99.90;;;;;;5047408;28;20633;-33
2023/03/30 12:20:49;;;;;;;10.77;2.57;;;16.60;99.90;;;;;;5047376;28;20590;-32
2023/03/30 12:23:16;;;;;;;14.25;3.15;;;16.70;99.90;;;;;;5047425;28;20218;-32
2023/03/30 12:26:21;;;;;;;16.42;3.38;;;16.80;99.90;;;;;;5047402;28;20204;-32
2023/03/30 12:29:07;;;;;;;11.27;3.40;;;16.90;99.90;;;;;;5047732;28;20196;-32
2023/03/30 12:31:58;;;;;;;9.32;2.90;;;16.90;99.90;;;;;;5046215;28;20755;-33
2023/03/30 12:34:32;;;;;;;12.32;2.72;;;17.00;99.90;;;;;;5045664;28;20205;-33
2023/03/30 12:37:08;;;;;;;10.67;2.07;;;17.10;99.90;;;;;;5046744;28;20208;-33
2023/03/30 12:39:56;;;;;;;16.20;2.65;;;17.20;99.90;;;;;;5046771;28;20212;-33
2023/03/30 12:42:33;;;;;;;15.95;3.30;;;17.20;99.90;;;;;;5046308;28;20204;-33
2023/03/30 12:45:34;;;;;;;8.27;2.50;;;17.30;99.90;;;;;;5046324;28;20269;-33
2023/03/30 12:48:07;;;;;;;13.00;2.55;;;17.40;99.90;;;;;;5028301;28;20244;-33
2023/03/30 12:50:57;;;;;;;14.70;3.40;;;17.40;99.90;;;;;;5046789;28;20200;-32
2023/03/30 12:53:24;;;;;;;18.63;3.38;;;17.50;99.90;;;;;;5045152;28;20258;-33
2023/03/30 12:56:06;;;;;;;12.35;2.90;;;17.50;99.90;;;;;;5045832;28;20246;-33
2023/03/30 12:59:10;;;;;;;13.70;2.88;;;17.60;99.90;;;;;;5045980;28;20207;-32
2023/03/30 13:02:07;;;;;;;10.68;3.47;;;17.60;99.90;;;;;;5045860;28;20968;-32
2023/03/30 13:04:37;;;;;;;13.35;2.95;;;17.70;99.90;;;;;;5036476;28;20668;-32
2023/03/30 13:07:20;;;;;;;11.30;2.60;;;17.70;99.90;;;;;;5044349;28;20251;-32
2023/03/30 13:10:01;;;;;;;12.18;2.65;;;17.80;99.90;;;;;;5045655;28;20295;-32
2023/03/30 13:12:40;;;;;;;10.95;3.28;;;17.90;99.90;;;;;;5044471;28;20208;-33
2023/03/30 13:15:31;;;;;;;10.80;2.25;;;18.00;99.90;;;;;;5045939;28;20210;-32
2023/03/30 13:18:01;;;;;;;18.67;3.22;;;17.90;99.90;;;;;;5045608;28;20204;-33
2023/03/30 13:20:36;;;;;;;18.00;2.95;;;17.90;99.90;;;;;;5046071;28;20228;-32
2023/03/30 13:23:10;;;;;;;16.23;3.03;;;17.90;99.90;;;;;;5046161;28;20236;-32
2023/03/30 13:25:44;;;;;;;15.37;3.33;;;18.00;99.90;;;;;;5046485;28;20223;-32